Time;durP1;ratioP1;P1;durP2;ratioP2;P2;SDS_P1;SDS_P2;PMS_P1;PMS_P2;Temp;Humidity;BMP_temperature;BMP_pressure;BME280_temperature;BME280_humidity;BME280_pressure;Samples;Min_cycle;Max_cycle;Signal;HPM_P1;HPM_P2
2022/07/23 00:01:31;;;;;;;23.37;19.03;;;16.80;99.90;;;;;;5113700;28;20523;-74
2022/07/23 00:03:57;;;;;;;24.07;18.90;;;16.80;99.90;;;;;;5095913;28;20182;-75
2022/07/23 00:06:23;;;;;;;24.00;18.60;;;16.80;99.90;;;;;;5113746;28;20170;-74
2022/07/23 00:08:50;;;;;;;22.17;19.77;;;16.70;99.90;;;;;;5114104;28;20207;-75
2022/07/23 00:11:16;;;;;;;21.07;18.80;;;16.70;99.90;;;;;;5114114;28;20630;-75
2022/07/23 00:13:43;;;;;;;27.37;20.13;;;16.60;99.90;;;;;;5095804;28;20793;-75
2022/07/23 00:16:09;;;;;;;26.53;21.37;;;16.60;99.90;;;;;;5113724;28;20203;-75
2022/07/23 00:18:34;;;;;;;25.60;20.50;;;16.60;99.90;;;;;;5113983;28;20167;-75
2022/07/23 00:21:00;;;;;;;24.43;20.57;;;16.60;99.90;;;;;;5113880;28;20505;-75
2022/07/23 00:23:27;;;;;;;27.13;20.60;;;16.60;99.90;;;;;;5113916;28;20167;-75
2022/07/23 00:25:52;;;;;;;25.87;20.23;;;16.60;99.90;;;;;;5113632;28;20190;-75
2022/07/23 00:28:18;;;;;;;23.20;20.70;;;16.50;99.90;;;;;;5113750;28;20210;-75
2022/07/23 00:30:44;;;;;;;26.27;20.70;;;16.60;99.90;;;;;;5095211;28;20667;-75
2022/07/23 00:33:09;;;;;;;28.03;21.37;;;16.50;99.90;;;;;;5113780;28;20637;-75
2022/07/23 00:35:40;;;;;;;23.43;20.93;;;16.60;99.90;;;;;;5113815;28;20621;-75
2022/07/23 00:38:07;;;;;;;23.70;19.93;;;16.50;99.90;;;;;;5113550;28;20709;-74
2022/07/23 00:40:34;;;;;;;24.40;20.93;;;16.50;99.90;;;;;;5113442;28;20622;-75
2022/07/23 00:43:00;;;;;;;26.67;21.63;;;16.50;99.90;;;;;;5113819;28;20193;-75
2022/07/23 00:45:26;;;;;;;24.97;19.83;;;16.50;99.90;;;;;;5113253;28;20618;-75
2022/07/23 00:47:52;;;;;;;21.97;19.63;;;16.50;99.90;;;;;;5113695;28;20254;-74
2022/07/23 00:50:18;;;;;;;22.40;20.00;;;16.50;99.90;;;;;;5113527;28;20228;-75
2022/07/23 00:52:43;;;;;;;24.80;21.27;;;16.40;99.90;;;;;;5114813;28;20167;-74
2022/07/23 00:55:10;;;;;;;24.70;20.63;;;16.40;99.90;;;;;;5117566;28;20189;-74
2022/07/23 00:57:37;;;;;;;30.83;20.90;;;16.30;99.90;;;;;;5117659;28;20171;-74
2022/07/23 01:00:05;;;;;;;22.80;20.37;;;16.30;99.90;;;;;;5117296;28;20270;-74
2022/07/23 01:02:31;;;;;;;26.70;21.07;;;16.30;99.90;;;;;;5117442;28;20210;-74
2022/07/23 01:04:57;;;;;;;25.27;21.00;;;16.30;99.90;;;;;;5117537;28;20191;-73
2022/07/23 01:07:23;;;;;;;25.03;20.87;;;16.30;99.90;;;;;;5117001;28;20294;-74
2022/07/23 01:09:51;;;;;;;24.97;21.13;;;16.30;99.90;;;;;;5117368;28;20225;-74
2022/07/23 01:12:16;;;;;;;26.97;21.57;;;16.30;99.90;;;;;;5117291;28;20163;-74
2022/07/23 01:14:42;;;;;;;26.87;22.57;;;16.30;99.90;;;;;;5098561;28;20536;-74
2022/07/23 01:17:07;;;;;;;24.00;21.27;;;16.30;99.90;;;;;;5117320;28;20171;-75
2022/07/23 01:19:33;;;;;;;27.37;22.00;;;16.30;99.90;;;;;;5117344;28;20274;-73
2022/07/23 01:22:03;;;;;;;24.43;21.50;;;16.30;99.90;;;;;;5117137;28;20204;-73
2022/07/23 01:24:29;;;;;;;26.57;20.50;;;16.20;99.90;;;;;;5117125;28;20197;-75
2022/07/23 01:26:55;;;;;;;26.03;20.83;;;16.20;99.90;;;;;;5117365;28;20175;-75
2022/07/23 01:29:21;;;;;;;30.23;22.03;;;16.10;99.90;;;;;;5116813;28;20705;-73
2022/07/23 01:31:47;;;;;;;23.50;21.00;;;16.00;99.90;;;;;;5117016;28;20675;-73
2022/07/23 01:34:13;;;;;;;25.37;21.03;;;16.00;99.90;;;;;;5098676;28;20251;-73
2022/07/23 01:36:39;;;;;;;28.70;21.40;;;15.90;99.90;;;;;;5116853;28;20194;-74
2022/07/23 01:39:06;;;;;;;28.93;22.53;;;16.00;99.90;;;;;;5116314;28;20662;-73
2022/07/23 01:41:32;;;;;;;25.07;21.47;;;15.90;99.90;;;;;;5117035;28;20572;-74
2022/07/23 01:43:57;;;;;;;25.67;21.20;;;15.90;99.90;;;;;;5116512;28;20171;-74
2022/07/23 01:46:23;;;;;;;26.03;22.57;;;15.90;99.90;;;;;;5116711;28;20175;-73
2022/07/23 01:48:49;;;;;;;28.50;22.30;;;15.90;99.90;;;;;;5116823;28;20839;-73
2022/07/23 01:51:14;;;;;;;24.70;22.03;;;15.90;99.90;;;;;;5116483;28;20173;-73
2022/07/23 01:53:40;;;;;;;26.57;22.53;;;15.90;99.90;;;;;;5116859;28;20254;-73
2022/07/23 01:56:06;;;;;;;27.73;23.03;;;15.80;99.90;;;;;;5116756;28;20525;-73
2022/07/23 01:58:32;;;;;;;27.03;22.27;;;15.80;99.90;;;;;;5081082;28;20646;-73
2022/07/23 02:00:58;;;;;;;28.40;23.17;;;15.70;99.90;;;;;;5116562;28;20170;-73
2022/07/23 02:03:25;;;;;;;26.73;23.03;;;15.70;99.90;;;;;;5116086;28;20525;-73
2022/07/23 02:05:50;;;;;;;27.60;22.70;;;15.70;99.90;;;;;;5115686;28;20168;-74
2022/07/23 02:08:16;;;;;;;25.47;21.70;;;15.70;99.90;;;;;;5115944;28;20291;-73
2022/07/23 02:10:42;;;;;;;28.23;23.37;;;15.70;99.90;;;;;;5116266;28;20207;-74
2022/07/23 02:13:08;;;;;;;31.30;23.20;;;15.70;99.90;;;;;;5116320;28;20164;-75
2022/07/23 02:15:33;;;;;;;25.13;22.13;;;15.70;99.90;;;;;;5097906;28;20193;-75
2022/07/23 02:17:59;;;;;;;29.63;23.67;;;15.70;99.90;;;;;;5116251;28;20175;-75
2022/07/23 02:20:25;;;;;;;27.47;22.67;;;15.60;99.90;;;;;;5097725;28;20254;-75
2022/07/23 02:22:51;;;;;;;27.83;22.83;;;15.60;99.90;;;;;;5116106;28;20179;-75
2022/07/23 02:25:17;;;;;;;29.60;22.40;;;15.60;99.90;;;;;;5115847;28;20254;-75
2022/07/23 02:27:43;;;;;;;27.53;22.63;;;15.60;99.90;;;;;;5116187;28;20231;-75
2022/07/23 02:30:10;;;;;;;26.27;23.43;;;15.60;99.90;;;;;;5115813;28;20203;-75
2022/07/23 02:32:36;;;;;;;29.57;23.20;;;15.60;99.90;;;;;;5116035;28;20160;-74
2022/07/23 02:35:03;;;;;;;27.23;22.67;;;15.50;99.90;;;;;;5115762;28;20222;-73
2022/07/23 02:37:29;;;;;;;33.33;23.30;;;15.50;99.90;;;;;;5097510;28;20623;-74
2022/07/23 02:39:54;;;;;;;25.87;22.97;;;15.50;99.90;;;;;;5115154;28;20187;-74
2022/07/23 02:42:21;;;;;;;26.33;22.70;;;15.50;99.90;;;;;;5115587;28;20186;-74
2022/07/23 02:44:46;;;;;;;32.40;24.00;;;15.50;99.90;;;;;;5115788;28;20171;-74
2022/07/23 02:47:12;;;;;;;27.23;23.40;;;15.60;99.90;;;;;;5115587;28;20510;-74
2022/07/23 02:49:37;;;;;;;29.20;23.67;;;15.60;99.90;;;;;;5115441;28;20695;-73
2022/07/23 02:52:04;;;;;;;32.70;24.60;;;15.70;99.90;;;;;;5115595;28;20689;-74
2022/07/23 02:54:29;;;;;;;31.83;24.30;;;15.70;99.90;;;;;;5115247;28;20182;-74
2022/07/23 02:56:55;;;;;;;35.00;24.93;;;15.70;99.90;;;;;;5115477;28;20171;-74
2022/07/23 02:59:21;;;;;;;33.67;25.30;;;15.80;99.90;;;;;;5115179;28;20179;-74
2022/07/23 03:01:47;;;;;;;29.83;24.80;;;15.80;99.90;;;;;;5115494;28;20218;-74
2022/07/23 03:04:12;;;;;;;28.20;23.43;;;15.80;99.90;;;;;;5115313;28;20171;-74
2022/07/23 03:06:39;;;;;;;30.13;24.63;;;15.70;99.90;;;;;;5114846;28;20678;-74
2022/07/23 03:09:05;;;;;;;26.60;22.47;;;15.60;99.90;;;;;;5114922;28;20211;-74
2022/07/23 03:11:31;;;;;;;28.23;22.73;;;15.50;99.90;;;;;;5115086;28;20250;-74
2022/07/23 03:13:56;;;;;;;30.93;23.30;;;15.50;99.90;;;;;;5114844;28;20179;-74
2022/07/23 03:16:22;;;;;;;26.83;22.70;;;15.50;99.90;;;;;;5096504;28;20163;-74
2022/07/23 03:18:48;;;;;;;25.13;22.43;;;15.40;99.90;;;;;;5114576;28;20634;-74
2022/07/23 03:21:13;;;;;;;27.73;23.73;;;15.50;99.90;;;;;;5114877;28;20638;-75
2022/07/23 03:23:39;;;;;;;28.93;23.63;;;15.50;99.90;;;;;;5114628;28;20163;-75
2022/07/23 03:26:05;;;;;;;28.03;23.90;;;15.60;99.90;;;;;;5114551;28;20175;-74
2022/07/23 03:28:30;;;;;;;28.30;23.27;;;15.60;99.90;;;;;;5114724;28;20692;-75
2022/07/23 03:30:56;;;;;;;27.43;23.43;;;15.60;99.90;;;;;;5114515;28;20531;-75
2022/07/23 03:33:22;;;;;;;27.63;22.23;;;15.60;99.90;;;;;;5096291;28;20251;-75
2022/07/23 03:35:48;;;;;;;25.27;22.57;;;15.50;99.90;;;;;;5114543;28;20171;-74
2022/07/23 03:38:14;;;;;;;25.23;22.53;;;15.50;99.90;;;;;;5114155;28;20673;-74
2022/07/23 03:40:40;;;;;;;25.33;21.37;;;15.50;99.90;;;;;;5114381;28;20171;-74
2022/07/23 03:43:05;;;;;;;25.87;22.10;;;15.50;99.90;;;;;;5114315;28;20634;-75
2022/07/23 03:45:32;;;;;;;25.10;22.20;;;15.50;99.90;;;;;;5114248;28;20171;-74
2022/07/23 03:47:57;;;;;;;29.33;21.90;;;15.50;99.90;;;;;;5114319;28;20250;-74
2022/07/23 03:50:23;;;;;;;26.37;22.17;;;15.60;99.90;;;;;;5113874;28;20266;-74
2022/07/23 03:52:49;;;;;;;28.93;22.23;;;15.70;99.90;;;;;;5113827;28;20170;-74
2022/07/23 03:55:15;;;;;;;24.73;21.80;;;15.70;99.90;;;;;;5113955;28;20246;-75
2022/07/23 03:57:42;;;;;;;27.37;22.43;;;15.70;99.90;;;;;;5113663;28;20167;-75
2022/07/23 04:00:09;;;;;;;28.53;22.83;;;15.60;99.90;;;;;;5113865;28;20167;-75
2022/07/23 04:02:35;;;;;;;24.37;21.23;;;15.70;99.90;;;;;;5095711;28;20168;-75
2022/07/23 04:05:01;;;;;;;23.93;21.37;;;15.70;99.90;;;;;;5096003;28;20191;-75
2022/07/23 04:07:27;;;;;;;28.43;21.87;;;15.70;99.90;;;;;;5113033;28;20242;-74
2022/07/23 04:09:52;;;;;;;26.60;21.27;;;15.60;99.90;;;;;;5095359;28;20612;-74
2022/07/23 04:12:18;;;;;;;24.20;21.53;;;15.80;99.90;;;;;;5095620;28;20235;-74
2022/07/23 04:14:44;;;;;;;25.67;21.57;;;15.90;99.90;;;;;;5113530;28;20175;-74
2022/07/23 04:17:11;;;;;;;27.57;22.70;;;16.00;99.90;;;;;;5113374;28;20208;-74
2022/07/23 04:19:39;;;;;;;23.97;21.00;;;16.10;99.90;;;;;;5113379;28;20178;-74
2022/07/23 04:22:06;;;;;;;26.60;21.33;;;16.20;99.90;;;;;;5113391;28;20182;-74
2022/07/23 04:24:32;;;;;;;23.33;20.43;;;16.40;99.90;;;;;;5113709;28;20171;-74
2022/07/23 04:26:57;;;;;;;24.13;20.13;;;16.70;99.90;;;;;;5113127;28;20529;-74
2022/07/23 04:29:23;;;;;;;20.90;18.80;;;17.00;99.90;;;;;;5113270;28;20236;-74
2022/07/23 04:31:49;;;;;;;21.20;18.80;;;17.30;99.90;;;;;;5095313;28;20167;-73
2022/07/23 04:34:14;;;;;;;19.77;17.77;;;17.50;99.90;;;;;;5113853;28;20179;-74
2022/07/23 04:36:40;;;;;;;19.63;17.20;;;17.70;99.90;;;;;;5113283;28;20701;-74
2022/07/23 04:39:06;;;;;;;19.60;16.47;;;18.20;99.90;;;;;;5113309;28;20198;-74
2022/07/23 04:41:32;;;;;;;18.80;16.17;;;18.60;92.50;;;;;;5095139;28;20656;-73
2022/07/23 04:43:57;;;;;;;18.38;16.45;;;19.10;69.10;;;;;;5113543;28;20644;-73
2022/07/23 04:46:23;;;;;;;17.25;15.38;;;19.30;33.00;;;;;;5113340;28;20532;-74
2022/07/23 04:48:48;;;;;;;16.45;14.85;;;19.50;15.40;;;;;;5113031;28;20221;-74
2022/07/23 04:51:14;;;;;;;16.35;14.63;;;19.50;6.10;;;;;;5094492;28;20667;-74
2022/07/23 04:53:40;;;;;;;18.17;15.27;;;19.40;15.00;;;;;;5113344;28;20203;-74
2022/07/23 04:56:06;;;;;;;16.38;14.88;;;19.50;14.80;;;;;;5113012;28;20192;-74
2022/07/23 04:58:32;;;;;;;16.40;14.70;;;20.20;1.00;;;;;;5113070;28;20170;-74
2022/07/23 05:00:58;;;;;;;16.85;15.15;;;20.70;1.00;;;;;;5113173;28;20172;-74
2022/07/23 05:03:23;;;;;;;15.20;13.90;;;21.10;1.00;;;;;;5113253;28;20528;-74
2022/07/23 05:05:49;;;;;;;17.42;14.23;;;21.30;1.00;;;;;;5112703;28;20553;-74
2022/07/23 05:08:15;;;;;;;16.95;14.35;;;22.00;1.00;;;;;;5112656;28;20250;-74
2022/07/23 05:10:40;;;;;;;15.52;13.93;;;22.60;1.00;;;;;;5112992;28;20190;-74
2022/07/23 05:13:06;;;;;;;14.73;13.18;;;23.40;1.00;;;;;;5112941;28;20658;-74
2022/07/23 05:15:32;;;;;;;14.02;12.60;;;24.00;1.00;;;;;;5112668;28;20641;-74
2022/07/23 05:17:57;;;;;;;15.82;13.30;;;24.50;1.00;;;;;;5113614;28;20902;-75
2022/07/23 05:20:23;;;;;;;13.82;12.52;;;24.70;33.80;;;;;;5112893;28;20164;-74
2022/07/23 05:22:49;;;;;;;14.30;12.85;;;24.40;47.50;;;;;;5113038;28;20213;-74
2022/07/23 05:25:16;;;;;;;14.30;12.93;;;24.10;47.70;;;;;;5112911;28;20202;-74
2022/07/23 05:27:42;;;;;;;15.32;13.82;;;24.20;1.00;;;;;;5113128;28;20174;-74
2022/07/23 05:30:08;;;;;;;13.73;12.43;;;23.40;1.00;;;;;;5112919;28;20211;-73
2022/07/23 05:32:36;;;;;;;14.57;13.20;;;22.50;1.00;;;;;;5112839;28;20240;-73
2022/07/23 05:35:02;;;;;;;14.20;12.43;;;22.60;1.00;;;;;;5112644;28;20217;-73
2022/07/23 05:37:28;;;;;;;14.77;12.73;;;21.70;1.00;;;;;;5113279;28;20203;-73
2022/07/23 05:39:54;;;;;;;15.52;13.23;;;20.60;1.00;;;;;;5115695;28;20229;-74
2022/07/23 05:42:19;;;;;;;14.02;12.63;;;20.40;1.00;;;;;;5116379;28;20174;-74
2022/07/23 05:44:45;;;;;;;15.30;12.90;;;20.50;1.00;;;;;;5116680;28;20665;-74
2022/07/23 05:47:11;;;;;;;16.13;13.00;;;20.50;1.00;;;;;;5116077;28;20181;-74
2022/07/23 05:49:38;;;;;;;15.20;13.57;;;20.10;1.00;;;;;;5116040;28;20677;-74
2022/07/23 05:52:07;;;;;;;14.30;12.48;;;20.20;1.00;;;;;;5116475;28;20167;-74
2022/07/23 05:54:36;;;;;;;14.27;12.85;;;20.00;1.00;;;;;;5116467;28;20167;-74
2022/07/23 05:57:02;;;;;;;15.07;13.45;;;20.30;1.00;;;;;;5116368;28;20163;-74
2022/07/23 05:59:28;;;;;;;14.27;12.75;;;20.90;1.00;;;;;;5116000;28;20186;-75
2022/07/23 06:01:54;;;;;;;16.63;13.15;;;21.30;1.00;;;;;;5116360;28;20638;-75
2022/07/23 06:04:20;;;;;;;15.90;13.30;;;22.00;1.00;;;;;;5115705;28;20176;-75
2022/07/23 06:06:45;;;;;;;15.23;12.73;;;22.30;1.00;;;;;;5116079;28;20211;-76
2022/07/23 06:09:13;;;;;;;13.93;12.65;;;23.50;1.00;;;;;;5115989;28;20289;-75
2022/07/23 06:11:39;;;;;;;13.55;12.18;;;24.10;99.90;;;;;;5116040;28;20259;-76
2022/07/23 06:14:05;;;;;;;13.35;11.98;;;24.70;1.00;;;;;;5116337;28;20685;-76
2022/07/23 06:16:30;;;;;;;13.10;11.80;;;25.90;1.00;;;;;;5115902;28;20167;-76
2022/07/23 06:18:56;;;;;;;12.75;11.50;;;26.30;1.00;;;;;;5115320;28;20218;-76
2022/07/23 06:21:22;;;;;;;12.43;11.38;;;27.20;1.00;;;;;;5115792;28;20220;-76
2022/07/23 06:23:47;;;;;;;13.30;11.80;;;28.40;1.00;;;;;;5115900;28;20530;-76
2022/07/23 06:26:13;;;;;;;14.10;11.27;;;29.30;1.00;;;;;;5115839;28;20729;-76
2022/07/23 06:28:39;;;;;;;12.05;10.93;;;29.20;99.90;;;;;;5115682;28;20209;-76
2022/07/23 06:31:04;;;;;;;11.30;10.20;;;29.70;99.90;;;;;;5115423;28;20626;-76
2022/07/23 06:33:30;;;;;;;11.05;10.05;;;30.20;99.90;;;;;;5096897;28;20260;-75
2022/07/23 06:35:55;;;;;;;11.10;10.00;;;29.20;99.90;;;;;;5115367;28;20205;-75
2022/07/23 06:38:21;;;;;;;11.43;10.05;;;29.30;99.90;;;;;;5115045;28;20183;-75
2022/07/23 06:40:47;;;;;;;11.75;10.02;;;28.10;99.90;;;;;;5115503;28;20652;-74
2022/07/23 06:43:12;;;;;;;11.02;9.95;;;27.90;1.00;;;;;;5097383;28;20191;-75
2022/07/23 06:45:38;;;;;;;10.20;9.32;;;28.60;1.00;;;;;;5115070;28;20612;-75
2022/07/23 06:48:04;;;;;;;10.30;9.40;;;29.30;99.90;;;;;;5114639;28;20653;-74
2022/07/23 06:50:29;;;;;;;11.07;10.07;;;29.80;99.90;;;;;;5114050;28;20569;-74
2022/07/23 06:52:55;;;;;;;10.15;9.20;;;31.00;99.90;;;;;;5115443;28;20736;-74
2022/07/23 06:55:21;;;;;;;11.07;10.18;;;31.10;99.90;;;;;;5115100;28;20175;-74
2022/07/23 06:57:46;;;;;;;10.80;9.68;;;32.40;99.90;;;;;;5114561;28;20160;-74
2022/07/23 07:00:12;;;;;;;11.45;10.07;;;33.00;99.90;;;;;;5114873;28;20171;-73
2022/07/23 07:02:38;;;;;;;10.60;9.68;;;33.50;99.90;;;;;;5114699;28;20178;-73
2022/07/23 07:05:04;;;;;;;12.10;9.20;;;33.20;99.90;;;;;;5114840;28;20170;-73
2022/07/23 07:07:29;;;;;;;10.98;9.88;;;33.40;99.90;;;;;;5114016;28;20280;-73
2022/07/23 07:09:55;;;;;;;11.02;10.13;;;32.90;99.90;;;;;;5114434;28;20218;-73
2022/07/23 07:12:21;;;;;;;10.60;9.57;;;33.70;99.90;;;;;;5114765;28;20634;-73
2022/07/23 07:14:46;;;;;;;10.25;9.23;;;33.30;99.90;;;;;;5114491;28;20171;-73
2022/07/23 07:17:12;;;;;;;11.05;9.90;;;32.80;99.90;;;;;;5114714;28;20164;-74
2022/07/23 07:19:37;;;;;;;9.90;9.20;;;33.80;99.90;;;;;;5114565;28;20171;-73
2022/07/23 07:22:03;;;;;;;9.73;8.90;;;33.80;99.90;;;;;;5096182;28;20515;-73
2022/07/23 07:24:29;;;;;;;10.50;9.50;;;33.50;99.90;;;;;;5114436;28;20167;-73
2022/07/23 07:26:54;;;;;;;10.68;9.68;;;33.60;99.90;;;;;;5114288;28;20171;-73
2022/07/23 07:29:20;;;;;;;10.63;9.68;;;33.90;99.90;;;;;;5114443;28;20203;-73
2022/07/23 07:31:45;;;;;;;11.15;10.07;;;33.60;99.90;;;;;;5114183;28;20691;-74
2022/07/23 07:34:11;;;;;;;9.90;9.00;;;33.80;94.80;;;;;;5114266;28;20175;-74
2022/07/23 07:36:37;;;;;;;9.35;8.55;;;32.80;94.10;;;;;;5114160;28;20213;-73
2022/07/23 07:39:06;;;;;;;10.55;8.88;;;33.70;92.10;;;;;;5113813;28;20646;-73
2022/07/23 07:41:32;;;;;;;9.23;8.45;;;33.40;94.60;;;;;;5114488;28;20638;-73
2022/07/23 07:43:58;;;;;;;9.88;8.95;;;33.70;98.70;;;;;;5114472;28;20171;-73
2022/07/23 07:46:23;;;;;;;10.55;9.65;;;34.90;88.60;;;;;;5113494;28;20694;-72
2022/07/23 07:48:50;;;;;;;10.27;9.32;;;35.30;73.20;;;;;;5113668;28;20195;-73
2022/07/23 07:51:16;;;;;;;10.35;9.40;;;36.10;59.60;;;;;;5113476;28;20251;-72
2022/07/23 07:53:41;;;;;;;10.27;9.38;;;35.20;53.40;;;;;;5113725;28;20195;-73
2022/07/23 07:56:07;;;;;;;11.20;10.10;;;35.50;58.80;;;;;;5113591;28;20171;-73
2022/07/23 07:58:33;;;;;;;10.88;9.85;;;34.40;53.80;;;;;;5113499;28;20173;-72
2022/07/23 08:00:58;;;;;;;10.50;9.60;;;33.50;47.90;;;;;;5113213;28;20170;-73
2022/07/23 08:03:24;;;;;;;11.05;10.15;;;33.80;66.40;;;;;;5113001;28;20250;-71
2022/07/23 08:05:50;;;;;;;9.80;8.90;;;33.10;80.20;;;;;;5113747;28;20189;-72
2022/07/23 08:08:15;;;;;;;10.35;9.27;;;33.30;76.10;;;;;;5112717;28;20222;-71
2022/07/23 08:10:41;;;;;;;9.65;8.77;;;33.10;79.30;;;;;;5113224;28;20179;-71
2022/07/23 08:13:07;;;;;;;9.68;8.07;;;33.40;76.90;;;;;;5113538;28;20204;-71
2022/07/23 08:15:33;;;;;;;8.30;7.40;;;33.00;66.30;;;;;;5112894;28;20171;-71
2022/07/23 08:17:59;;;;;;;11.70;8.93;;;33.40;77.50;;;;;;5113318;28;20160;-71
2022/07/23 08:20:26;;;;;;;8.45;7.75;;;34.00;92.10;;;;;;5112942;28;20196;-71
2022/07/23 08:22:58;;;;;;;9.73;7.15;;;33.50;74.70;;;;;;5113344;28;20254;-70
2022/07/23 08:25:31;;;;;;;9.00;7.80;;;34.40;87.80;;;;;;5113463;28;20694;-70
2022/07/23 08:27:59;;;;;;;8.70;7.80;;;34.70;92.10;;;;;;5113387;28;20202;-70
2022/07/23 08:30:25;;;;;;;9.75;8.57;;;33.90;89.00;;;;;;5113086;28;20234;-70
2022/07/23 08:33:15;;;;;;;9.15;8.35;;;33.80;77.70;;;;;;5113409;28;20166;-70
2022/07/23 08:35:49;;;;;;;8.05;7.45;;;34.80;90.70;;;;;;5113226;28;20175;-70
2022/07/23 08:38:18;;;;;;;7.70;7.00;;;35.40;63.20;;;;;;5112530;28;20260;-71
2022/07/23 08:40:47;;;;;;;11.07;6.72;;;36.30;59.70;;;;;;5112943;28;20170;-70
2022/07/23 08:43:19;;;;;;;7.65;6.88;;;36.80;42.00;;;;;;5113090;28;20171;-70
2022/07/23 08:45:47;;;;;;;7.55;6.90;;;37.10;42.80;;;;;;5113360;28;20656;-70
2022/07/23 08:48:20;;;;;;;8.10;7.40;;;36.50;38.60;;;;;;5112611;28;20520;-70
2022/07/23 08:50:51;;;;;;;9.82;7.82;;;35.80;29.70;;;;;;5113355;28;20196;-70
2022/07/23 08:53:18;;;;;;;7.68;7.07;;;35.90;42.40;;;;;;5113134;28;20167;-70
2022/07/23 08:55:45;;;;;;;8.75;8.00;;;34.60;46.30;;;;;;5113462;28;20202;-70
2022/07/23 08:58:11;;;;;;;8.35;7.65;;;34.30;38.80;;;;;;5112039;28;20229;-70
2022/07/23 09:00:37;;;;;;;9.05;8.18;;;34.90;15.40;;;;;;5112233;28;20216;-70
2022/07/23 09:03:03;;;;;;;9.02;8.20;;;32.70;25.70;;;;;;5112991;28;20384;-70
2022/07/23 09:05:29;;;;;;;8.45;7.75;;;33.70;38.80;;;;;;5112591;28;20258;-70
2022/07/23 09:08:14;;;;;;;8.73;6.95;;;34.50;30.30;;;;;;5112901;28;20293;-70
2022/07/23 09:10:47;;;;;;;7.55;6.95;;;35.20;51.30;;;;;;5112908;28;20183;-70
2022/07/23 09:13:32;;;;;;;8.38;7.60;;;34.80;46.50;;;;;;5112481;28;20174;-71
2022/07/23 09:16:08;;;;;;;7.85;7.30;;;34.50;28.30;;;;;;5117005;28;20234;-71
2022/07/23 09:18:54;;;;;;;8.18;7.35;;;35.00;47.90;;;;;;5116709;28;20628;-71
2022/07/23 09:21:23;;;;;;;8.35;7.65;;;35.10;42.90;;;;;;5116896;28;20167;-71
2022/07/23 09:24:23;;;;;;;8.27;7.57;;;35.00;37.80;;;;;;5116806;28;20254;-71
2022/07/23 09:26:52;;;;;;;7.93;7.32;;;34.90;39.10;;;;;;5111463;28;20180;-71
2022/07/23 09:29:26;;;;;;;8.70;7.85;;;34.10;29.60;;;;;;5116611;28;20207;-71
2022/07/23 09:31:56;;;;;;;8.38;6.88;;;34.20;1.00;;;;;;5116668;28;20179;-70
2022/07/23 09:34:26;;;;;;;8.70;7.80;;;34.00;46.40;;;;;;5116424;28;20254;-71
2022/07/23 09:36:58;;;;;;;8.02;7.32;;;32.00;21.20;;;;;;5116717;28;20568;-71
2022/07/23 09:39:26;;;;;;;7.88;6.97;;;30.70;64.70;;;;;;5116360;28;20257;-71
2022/07/23 09:41:52;;;;;;;8.80;8.05;;;31.70;48.40;;;;;;5116608;28;20513;-72
2022/07/23 09:44:20;;;;;;;8.00;7.20;;;32.50;51.40;;;;;;5116524;28;20160;-71
2022/07/23 09:46:48;;;;;;;6.57;6.03;;;33.40;47.20;;;;;;5115721;28;20175;-71
2022/07/23 09:49:16;;;;;;;6.80;6.13;;;34.80;34.30;;;;;;5115439;28;20743;-71
2022/07/23 09:51:57;;;;;;;8.57;6.53;;;36.00;16.30;;;;;;5116481;28;20254;-71
2022/07/23 09:54:26;;;;;;;6.70;6.10;;;36.40;16.60;;;;;;5116210;28;20178;-71
2022/07/23 09:56:53;;;;;;;11.68;8.05;;;36.10;21.70;;;;;;5115547;28;20174;-71
2022/07/23 09:59:24;;;;;;;7.78;5.57;;;36.60;22.50;;;;;;5115210;28;20171;-71
2022/07/23 10:01:51;;;;;;;4.95;4.63;;;36.60;16.10;;;;;;5116248;28;20179;-72
2022/07/23 10:04:18;;;;;;;6.35;5.50;;;36.40;10.70;;;;;;5116068;28;20652;-72
2022/07/23 10:06:45;;;;;;;5.78;5.30;;;35.80;1.00;;;;;;5115219;28;20282;-72
2022/07/23 10:09:12;;;;;;;6.22;5.68;;;35.30;8.40;;;;;;5115623;28;20245;-72
2022/07/23 10:11:38;;;;;;;6.70;6.10;;;34.80;12.50;;;;;;5115930;28;20175;-73
2022/07/23 10:14:05;;;;;;;6.32;5.82;;;33.40;8.40;;;;;;5115963;28;20183;-73
2022/07/23 10:16:31;;;;;;;5.00;4.60;;;33.30;3.90;;;;;;5115389;28;20621;-73
2022/07/23 10:18:57;;;;;;;5.35;4.88;;;34.10;13.70;;;;;;5115358;28;20167;-72
2022/07/23 10:21:40;;;;;;;6.18;5.78;;;33.90;5.30;;;;;;5116093;28;20167;-73
2022/07/23 10:24:18;;;;;;;5.43;4.85;;;34.60;23.80;;;;;;5114802;28;20178;-74
2022/07/23 10:27:09;;;;;;;4.50;4.13;;;35.50;22.80;;;;;;5114651;28;20179;-73
2022/07/23 10:30:06;;;;;;;6.18;5.57;;;36.30;17.60;;;;;;5115384;28;20214;-73
2022/07/23 10:32:47;;;;;;;5.38;4.88;;;36.60;13.20;;;;;;5116201;28;20175;-73
2022/07/23 10:35:33;;;;;;;5.75;5.35;;;36.50;10.30;;;;;;5115224;28;20170;-74
2022/07/23 10:38:37;;;;;;;4.43;4.22;;;34.90;13.00;;;;;;5063201;28;20206;-72
2022/07/23 10:41:04;;;;;;;5.53;5.03;;;34.70;15.00;;;;;;5115183;28;20166;-72
2022/07/23 10:43:30;;;;;;;5.43;5.03;;;34.60;14.90;;;;;;5115186;28;20178;-73
2022/07/23 10:46:51;;;;;;;5.28;4.88;;;34.90;13.80;;;;;;5114958;28;20163;-74
2022/07/23 10:49:25;;;;;;;5.97;5.40;;;35.10;13.70;;;;;;5113658;28;20586;-74
2022/07/23 10:52:19;;;;;;;5.50;5.20;;;34.70;11.80;;;;;;5115483;28;20162;-73
2022/07/23 10:54:49;;;;;;;5.85;5.45;;;34.70;17.20;;;;;;5114550;28;20171;-74
2022/07/23 10:57:16;;;;;;;7.05;6.43;;;34.70;15.30;;;;;;5114156;28;20252;-75
2022/07/23 11:00:00;;;;;;;5.28;4.78;;;34.10;20.90;;;;;;5115123;28;20308;-74
2022/07/23 11:02:27;;;;;;;6.13;5.63;;;34.20;14.00;;;;;;5114906;28;20171;-76
2022/07/23 11:04:53;;;;;;;5.63;5.22;;;32.90;33.50;;;;;;5113753;28;20246;-74
2022/07/23 11:07:20;;;;;;;6.70;5.47;;;32.40;23.40;;;;;;5114581;28;20222;-74
2022/07/23 11:09:47;;;;;;;6.05;5.65;;;31.90;24.80;;;;;;5114263;28;20207;-74
2022/07/23 11:12:13;;;;;;;6.90;5.45;;;29.80;38.20;;;;;;5114628;28;20528;-75
2022/07/23 11:15:08;;;;;;;5.88;5.20;;;29.40;21.80;;;;;;5114703;28;20254;-75
2022/07/23 11:17:39;;;;;;;6.28;5.63;;;29.70;77.50;;;;;;5113718;28;20167;-74
2022/07/23 11:20:15;;;;;;;6.65;6.05;;;30.20;54.70;;;;;;5114366;28;20202;-74
2022/07/23 11:22:43;;;;;;;6.68;6.03;;;30.30;65.50;;;;;;5114355;28;20175;-74
2022/07/23 11:25:33;;;;;;;7.68;5.85;;;30.70;62.10;;;;;;5114846;28;20171;-74
2022/07/23 11:28:17;;;;;;;5.72;5.22;;;32.20;57.20;;;;;;5101397;28;20186;-74
2022/07/23 11:30:45;;;;;;;8.05;5.82;;;32.60;43.80;;;;;;5114299;28;20618;-75
2022/07/23 11:33:10;;;;;;;5.32;4.93;;;32.00;44.30;;;;;;5114155;28;20293;-76
2022/07/23 11:35:38;;;;;;;6.50;5.90;;;31.60;46.40;;;;;;5113974;28;20626;-75
2022/07/23 11:38:24;;;;;;;6.30;5.70;;;31.40;54.10;;;;;;5095047;28;20226;-75
2022/07/23 11:40:54;;;;;;;6.45;5.85;;;31.70;49.30;;;;;;5113877;28;20556;-75
2022/07/23 11:43:21;;;;;;;5.88;5.38;;;32.30;75.20;;;;;;5114260;28;20171;-74
2022/07/23 11:45:52;;;;;;;7.43;6.70;;;32.90;45.10;;;;;;5114062;28;20248;-75
2022/07/23 11:48:21;;;;;;;6.70;6.15;;;32.50;39.40;;;;;;5113835;28;20159;-75
2022/07/23 11:50:47;;;;;;;6.18;5.65;;;31.40;50.80;;;;;;5112729;28;20175;-75
2022/07/23 11:53:13;;;;;;;6.68;5.97;;;31.10;58.50;;;;;;5113755;28;20171;-75
2022/07/23 11:55:39;;;;;;;6.03;5.53;;;31.40;40.30;;;;;;5113499;28;20213;-76
2022/07/23 11:58:05;;;;;;;6.15;5.68;;;31.90;47.40;;;;;;5113867;28;20633;-75
2022/07/23 12:00:32;;;;;;;7.22;6.18;;;31.90;40.40;;;;;;5113999;28;20175;-76
2022/07/23 12:03:02;;;;;;;7.63;6.88;;;32.00;51.50;;;;;;5113899;28;20175;-75
2022/07/23 12:05:31;;;;;;;6.57;5.97;;;32.10;47.90;;;;;;5113028;28;20167;-75
2022/07/23 12:07:58;;;;;;;6.32;5.70;;;32.00;53.40;;;;;;5113349;28;20215;-75
2022/07/23 12:10:30;;;;;;;6.50;5.90;;;32.20;46.10;;;;;;5113515;28;20632;-75
2022/07/23 12:12:57;;;;;;;7.85;7.03;;;31.70;47.70;;;;;;5113338;28;20191;-75
2022/07/23 12:15:25;;;;;;;7.95;6.72;;;31.20;47.40;;;;;;5113424;28;20159;-75
2022/07/23 12:17:54;;;;;;;7.60;6.95;;;31.30;59.70;;;;;;5095021;28;20179;-75
2022/07/23 12:20:25;;;;;;;7.47;6.45;;;31.20;62.60;;;;;;5113001;28;20189;-75
2022/07/23 12:22:55;;;;;;;7.63;6.93;;;31.00;72.60;;;;;;5113792;28;20167;-75
2022/07/23 12:25:23;;;;;;;5.78;5.38;;;30.70;94.20;;;;;;5113312;28;20159;-75
2022/07/23 12:28:10;;;;;;;6.22;5.72;;;30.50;91.30;;;;;;5113170;28;20225;-75
2022/07/23 12:30:44;;;;;;;6.35;5.68;;;30.50;99.90;;;;;;5113129;28;20214;-75
2022/07/23 12:33:20;;;;;;;6.70;5.55;;;30.60;82.50;;;;;;5112673;28;20174;-75
2022/07/23 12:35:47;;;;;;;7.18;6.60;;;30.30;81.10;;;;;;5112979;28;20170;-75
2022/07/23 12:38:19;;;;;;;7.30;5.82;;;30.20;89.70;;;;;;5113563;28;20183;-74
2022/07/23 12:40:49;;;;;;;7.43;6.35;;;30.20;92.80;;;;;;5112862;28;20171;-75